createdAt,value
2022-09-21T00:00:53.525Z,5.14
2022-09-21T00:06:02.389Z,5.13
2022-09-21T00:11:05.520Z,5.05
2022-09-21T00:16:08.496Z,5.03
2022-09-21T00:21:13.048Z,4.96
2022-09-21T00:26:17.091Z,4.88
2022-09-21T00:31:19.275Z,4.85
2022-09-21T00:36:23.257Z,4.80
2022-09-21T00:41:26.930Z,4.74
2022-09-21T00:46:30.892Z,4.72
2022-09-21T00:51:32.580Z,4.65
2022-09-21T00:56:36.633Z,4.57
2022-09-21T01:01:38.547Z,4.54
2022-09-21T01:06:41.395Z,4.54
2022-09-21T01:12:33.629Z,4.49
2022-09-21T01:17:58.551Z,4.48
2022-09-21T01:23:10.198Z,4.48
2022-09-21T01:28:22.432Z,4.43
2022-09-21T01:33:32.217Z,4.31
2022-09-21T01:38:41.079Z,4.24
2022-09-21T01:43:47.666Z,4.15
2022-09-21T01:48:54.705Z,4.03
2022-09-21T01:54:02.843Z,3.95
2022-09-21T01:59:14.677Z,3.93
2022-09-21T02:04:16.175Z,4.03
2022-09-21T02:09:20.371Z,4.10
2022-09-21T02:14:24.159Z,4.06
2022-09-21T02:19:45.481Z,4.06
2022-09-21T02:24:52.037Z,4.04
2022-09-21T02:30:14.854Z,4.01
2022-09-21T02:35:31.512Z,3.96
2022-09-21T02:40:49.390Z,3.96
2022-09-21T02:45:57.137Z,3.96
2022-09-21T02:57:36.098Z,3.97
2022-09-21T03:02:44.399Z,3.93
2022-09-21T03:07:45.898Z,3.90
2022-09-21T03:12:47.424Z,3.87
2022-09-21T03:17:48.919Z,3.87
2022-09-21T03:22:50.423Z,3.80
2022-09-21T03:27:53.737Z,3.73
2022-09-21T03:32:56.000Z,3.66
2022-09-21T03:37:58.042Z,3.78
2022-09-21T03:42:59.667Z,3.84
2022-09-21T03:48:01.577Z,3.87
2022-09-21T03:53:03.489Z,3.87
2022-09-21T03:58:05.876Z,3.86
2022-09-21T04:03:07.391Z,3.85
2022-09-21T04:08:10.037Z,3.80
2022-09-21T04:13:13.527Z,3.78
2022-09-21T04:18:15.039Z,3.80
2022-09-21T04:23:16.684Z,3.69
2022-09-21T04:28:18.193Z,3.65
2022-09-21T04:33:20.256Z,3.63
2022-09-21T04:38:21.850Z,3.57
2022-09-21T04:43:23.747Z,3.49
2022-09-21T04:48:25.269Z,3.48
2022-09-21T04:53:26.839Z,3.47
2022-09-21T04:58:28.444Z,3.54
2022-09-21T05:03:30.985Z,3.57
2022-09-21T05:08:51.031Z,3.56
2022-09-21T05:13:52.829Z,3.55
2022-09-21T05:18:57.079Z,3.53
2022-09-21T05:23:58.667Z,3.52
2022-09-21T05:29:00.425Z,3.59
2022-09-21T05:34:42.406Z,3.57
2022-09-21T05:39:44.687Z,3.64
2022-09-21T05:44:49.396Z,3.71
2022-09-21T05:50:10.289Z,3.82
2022-09-21T05:55:14.579Z,3.98
2022-09-21T06:00:16.198Z,4.29
2022-09-21T06:05:18.071Z,4.59
2022-09-21T06:10:19.621Z,4.84
2022-09-21T06:15:21.435Z,5.14
2022-09-21T06:20:27.385Z,5.39
2022-09-21T06:25:29.326Z,5.68
2022-09-21T06:30:33.327Z,5.93
2022-09-21T06:35:36.028Z,6.17
2022-09-21T06:40:37.706Z,6.34
2022-09-21T06:45:39.287Z,6.54
2022-09-21T06:50:40.938Z,6.82
2022-09-21T06:55:42.445Z,7.06
2022-09-21T07:00:44.156Z,7.25
2022-09-21T07:05:46.382Z,7.39
2022-09-21T07:10:47.976Z,7.61
2022-09-21T07:15:53.233Z,7.81
2022-09-21T07:20:54.957Z,8.09
2022-09-21T07:26:05.527Z,8.40
2022-09-21T07:31:15.585Z,8.77
2022-09-21T07:36:17.851Z,9.12
2022-09-21T07:41:19.611Z,9.37
2022-09-21T07:46:21.137Z,9.59
2022-09-21T07:51:23.774Z,9.91
2022-09-21T07:56:25.638Z,10.15
2022-09-21T08:01:28.206Z,10.20
2022-09-21T08:06:32.998Z,10.36
2022-09-21T08:11:34.666Z,10.50
2022-09-21T08:16:38.202Z,10.77
2022-09-21T08:21:42.157Z,10.95
2022-09-21T08:26:44.292Z,11.06
2022-09-21T08:31:46.722Z,11.26
2022-09-21T08:36:52.987Z,11.55
2022-09-21T08:42:18.362Z,11.82
2022-09-21T08:47:30.946Z,12.05
2022-09-21T08:52:33.632Z,12.21
2022-09-21T08:57:35.260Z,12.37
2022-09-21T09:02:45.798Z,12.47
2022-09-21T09:08:05.633Z,12.58
2022-09-21T09:13:55.828Z,12.58
2022-09-21T09:19:15.871Z,12.79
2022-09-21T09:24:36.012Z,12.92
2022-09-21T09:29:51.714Z,12.99
2022-09-21T09:35:05.759Z,13.14
2022-09-21T09:40:08.683Z,13.26
2022-09-21T09:45:19.786Z,13.49
2022-09-21T09:50:29.174Z,13.41
2022-09-21T09:55:43.708Z,13.24
2022-09-21T10:00:47.824Z,13.50
2022-09-21T10:05:50.272Z,13.69
2022-09-21T10:10:51.862Z,13.82
2022-09-21T10:16:02.853Z,13.92
2022-09-21T10:21:14.768Z,14.00
2022-09-21T10:26:17.836Z,14.05
2022-09-21T10:31:24.186Z,14.27
2022-09-21T10:36:28.942Z,14.38
2022-09-21T10:41:30.494Z,14.46
2022-09-21T10:46:34.442Z,14.48
2022-09-21T10:51:36.499Z,14.41
2022-09-21T10:56:51.430Z,14.42
2022-09-21T11:01:56.023Z,14.60
2022-09-21T11:07:11.567Z,14.58
2022-09-21T11:12:40.312Z,14.78
2022-09-21T11:17:48.159Z,14.92
2022-09-21T11:23:23.263Z,14.82
2022-09-21T11:28:32.073Z,14.95
2022-09-21T11:34:08.821Z,15.04
2022-09-21T11:39:33.677Z,15.04
2022-09-21T11:44:49.627Z,15.19
2022-09-21T11:50:26.449Z,15.33
2022-09-21T11:55:50.142Z,15.29
2022-09-21T12:01:08.887Z,15.41
2022-09-21T12:06:18.194Z,15.56
2022-09-21T12:11:37.466Z,15.39
2022-09-21T12:16:38.963Z,15.17
2022-09-21T12:21:45.899Z,15.06
2022-09-21T12:26:55.718Z,15.09
2022-09-21T12:32:21.863Z,14.96
2022-09-21T12:37:42.631Z,15.23
2022-09-21T12:42:49.917Z,15.34
2022-09-21T12:48:08.723Z,15.45
2022-09-21T12:53:18.899Z,15.40
2022-09-21T12:58:48.719Z,15.19
2022-09-21T13:04:23.221Z,15.13
2022-09-21T13:09:26.612Z,15.29
2022-09-21T13:14:34.706Z,15.46
2022-09-21T13:19:36.435Z,15.38
2022-09-21T13:24:37.991Z,15.56
2022-09-21T13:29:40.700Z,15.45
2022-09-21T13:34:47.026Z,15.44
2022-09-21T13:40:13.184Z,15.69
2022-09-21T13:45:21.351Z,15.85
2022-09-21T13:50:53.510Z,15.74
2022-09-21T13:56:01.557Z,15.67
2022-09-21T14:01:35.482Z,15.70
2022-09-21T14:06:44.773Z,15.91
2022-09-21T14:11:54.192Z,15.60
2022-09-21T14:16:58.986Z,15.32
2022-09-21T14:22:03.487Z,15.47
2022-09-21T14:27:34.242Z,15.80
2022-09-21T14:32:59.052Z,15.92
2022-09-21T14:38:10.965Z,15.93
2022-09-21T14:43:18.136Z,15.84
2022-09-21T14:48:50.727Z,15.83
2022-09-21T14:54:19.399Z,15.80
2022-09-21T14:59:41.275Z,15.76
2022-09-21T15:04:54.491Z,15.79
2022-09-21T15:10:33.857Z,15.95
2022-09-21T15:16:07.939Z,15.96
2022-09-21T15:21:21.984Z,15.92
2022-09-21T15:26:29.264Z,15.71
2022-09-21T15:31:42.053Z,15.52
2022-09-21T15:36:44.433Z,15.39
2022-09-21T15:41:48.917Z,15.35
2022-09-21T15:46:53.266Z,15.34
2022-09-21T15:52:18.699Z,15.39
2022-09-21T15:57:26.757Z,15.45
2022-09-21T16:02:38.293Z,15.42
2022-09-21T16:07:40.986Z,15.35
2022-09-21T16:12:44.397Z,15.30
2022-09-21T16:18:04.835Z,15.29
2022-09-21T16:23:13.798Z,15.40
2022-09-21T16:28:17.893Z,15.60
2022-09-21T16:33:40.897Z,15.53
2022-09-21T16:38:43.322Z,15.31
2022-09-21T16:43:45.089Z,15.08
2022-09-21T16:48:46.575Z,14.84
2022-09-21T16:53:48.201Z,14.66
2022-09-21T16:58:49.889Z,14.46
2022-09-21T17:03:51.365Z,14.26
2022-09-21T17:08:52.846Z,14.05
2022-09-21T17:13:57.907Z,13.83
2022-09-21T17:18:59.434Z,13.59
2022-09-21T17:24:01.139Z,13.35
2022-09-21T17:29:05.707Z,13.11
2022-09-21T17:34:12.315Z,12.88
2022-09-21T17:39:14.305Z,12.59
2022-09-21T17:44:18.899Z,12.26
2022-09-21T17:49:23.082Z,12.00
2022-09-21T17:54:24.829Z,11.84
2022-09-21T17:59:39.990Z,11.58
2022-09-21T18:04:41.615Z,11.31
2022-09-21T18:09:43.548Z,11.06
2022-09-21T18:15:08.667Z,10.84
2022-09-21T18:20:18.263Z,10.65
2022-09-21T18:25:31.481Z,10.42
2022-09-21T18:30:33.130Z,10.18
2022-09-21T18:35:53.269Z,9.96
2022-09-21T18:41:03.046Z,9.72
2022-09-21T18:46:19.340Z,9.51
2022-09-21T18:51:29.781Z,9.28
2022-09-21T18:56:39.357Z,9.10
2022-09-21T19:01:42.813Z,8.98
2022-09-21T19:06:56.768Z,8.85
2022-09-21T19:12:20.952Z,8.66
2022-09-21T19:17:47.238Z,8.45
2022-09-21T19:23:04.382Z,8.25
2022-09-21T19:28:30.401Z,8.07
2022-09-21T19:33:49.377Z,7.94
2022-09-21T19:38:53.161Z,7.84
2022-09-21T19:44:31.271Z,7.74
2022-09-21T19:49:47.990Z,7.67
2022-09-21T19:55:08.158Z,7.59
2022-09-21T20:00:16.339Z,7.52
2022-09-21T20:05:23.673Z,7.45
2022-09-21T20:10:37.071Z,7.38
2022-09-21T20:16:04.577Z,7.28
2022-09-21T20:21:14.622Z,7.18
2022-09-21T20:26:26.138Z,7.12
2022-09-21T20:31:28.006Z,7.04
2022-09-21T20:36:29.499Z,6.90
2022-09-21T20:41:32.279Z,6.78
2022-09-21T20:46:33.804Z,6.67
2022-09-21T20:51:35.834Z,6.57
2022-09-21T20:56:37.351Z,6.45
2022-09-21T21:01:39.008Z,6.32
2022-09-21T21:06:40.641Z,6.27
2022-09-21T21:11:42.209Z,6.25
2022-09-21T21:16:44.011Z,6.26
2022-09-21T21:21:45.652Z,6.22
2022-09-21T21:27:03.258Z,6.13
2022-09-21T21:32:05.355Z,6.06
2022-09-21T21:37:09.807Z,6.09
2022-09-21T21:42:12.239Z,6.10
2022-09-21T21:47:38.687Z,6.06
2022-09-21T21:52:35.973Z,5.99
2022-09-21T21:57:37.475Z,5.97
2022-09-21T22:02:39.042Z,5.92
2022-09-21T22:07:41.019Z,5.88
2022-09-21T22:12:42.881Z,5.83
2022-09-21T22:17:44.374Z,5.76
2022-09-21T22:22:45.863Z,5.74
2022-09-21T22:27:47.376Z,5.73
2022-09-21T22:32:51.471Z,5.73
2022-09-21T22:37:56.174Z,5.69
2022-09-21T22:42:57.686Z,5.65
2022-09-21T22:47:59.394Z,5.54
2022-09-21T22:53:03.167Z,5.44
2022-09-21T22:58:04.695Z,5.38
